Time;durP1;ratioP1;P1;durP2;ratioP2;P2;SDS_P1;SDS_P2;PMS_P1;PMS_P2;Temp;Humidity;BMP_temperature;BMP_pressure;BME280_temperature;BME280_humidity;BME280_pressure;Samples;Min_cycle;Max_cycle;Signal;HPM_P1;HPM_P2
2024/01/03 00:02:22;;;;;;;7.75;2.45;;;;;;;6.41;100.00;97536.94;5073143;28;20502;-47
2024/01/03 00:04:49;;;;;;;25.33;5.85;;;;;;;6.42;100.00;97541.25;5085383;28;20055;-51
2024/01/03 00:07:17;;;;;;;10.27;1.75;;;;;;;6.43;100.00;97548.34;5082085;28;20040;-52
2024/01/03 00:09:44;;;;;;;9.10;3.60;;;;;;;6.43;100.00;97537.34;5089376;28;20056;-47
2024/01/03 00:12:22;;;;;;;11.65;2.17;;;;;;;6.43;100.00;97539.31;5083956;28;20130;-48
2024/01/03 00:14:51;;;;;;;7.03;2.33;;;;;;;6.43;100.00;97545.59;5089290;28;20059;-53
2024/01/03 00:17:20;;;;;;;8.45;2.33;;;;;;;6.43;100.00;97539.31;5077415;28;20043;-46
2024/01/03 00:19:57;;;;;;;8.07;1.70;;;;;;;6.44;100.00;97541.66;5088658;28;20048;-48
2024/01/03 00:22:25;;;;;;;8.40;2.10;;;;;;;6.44;100.00;97529.88;5070912;28;20045;-49
2024/01/03 00:25:03;;;;;;;5.55;2.58;;;;;;;6.44;100.00;97546.34;5070207;28;20036;-46
2024/01/03 00:27:32;;;;;;;6.00;2.60;;;;;;;6.42;100.00;97544.00;5071789;28;20040;-49
2024/01/03 00:30:06;;;;;;;8.95;3.67;;;;;;;6.43;100.00;97540.09;5089596;28;20054;-50
2024/01/03 00:32:34;;;;;;;7.60;1.90;;;;;;;6.42;100.00;97541.25;5089218;28;20055;-46
2024/01/03 00:35:11;;;;;;;4.45;2.50;;;;;;;6.40;100.00;97532.63;5088775;28;20047;-47
2024/01/03 00:37:40;;;;;;;8.48;1.98;;;;;;;6.40;100.00;97540.88;5089488;28;20044;-47
2024/01/03 00:40:30;;;;;;;12.90;2.08;;;;;;;6.38;100.00;97532.22;5089744;28;20044;-46
2024/01/03 00:42:58;;;;;;;9.70;2.38;;;;;;;6.37;100.00;97535.38;5057774;28;20044;-51
2024/01/03 00:45:25;;;;;;;7.68;1.95;;;;;;;6.35;100.00;97538.53;5088625;28;20051;-55
2024/01/03 00:47:52;;;;;;;9.35;1.80;;;;;;;6.37;100.00;97533.41;5089671;28;20051;-51
2024/01/03 00:50:20;;;;;;;8.38;2.58;;;;;;;6.37;100.00;97541.66;5088456;28;20106;-48
2024/01/03 00:52:47;;;;;;;8.23;1.92;;;;;;;6.37;100.00;97541.66;5081114;28;20032;-50
2024/01/03 00:55:15;;;;;;;9.70;1.88;;;;;;;6.37;100.00;97547.16;5082613;28;20052;-51
2024/01/03 00:57:45;;;;;;;11.95;2.03;;;;;;;6.39;100.00;97544.00;5089581;28;20040;-48
2024/01/03 01:00:13;;;;;;;6.82;1.30;;;;;;;6.39;100.00;97542.03;5088733;28;20082;-48
2024/01/03 01:02:40;;;;;;;9.07;1.45;;;;;;;6.40;100.00;97546.38;5088226;28;20401;-46
2024/01/03 01:05:08;;;;;;;9.00;1.92;;;;;;;6.41;100.00;97542.44;5087072;28;20497;-47
2024/01/03 01:07:35;;;;;;;7.03;1.88;;;;;;;6.42;100.00;97544.00;5088059;28;20043;-47
2024/01/03 01:10:04;;;;;;;7.20;1.52;;;;;;;6.41;100.00;97547.94;5088063;28;20048;-46
2024/01/03 01:12:31;;;;;;;4.43;1.27;;;;;;;6.41;100.00;97547.94;5077086;28;20041;-46
2024/01/03 01:15:02;;;;;;;4.35;1.70;;;;;;;6.43;100.00;97545.59;5071642;28;20517;-49
2024/01/03 01:17:29;;;;;;;6.53;2.25;;;;;;;6.42;100.00;97544.00;5077611;28;20045;-46
2024/01/03 01:19:56;;;;;;;2.58;1.30;;;;;;;6.42;100.00;97541.25;5052559;28;20036;-46
2024/01/03 01:22:25;;;;;;;9.10;2.03;;;;;;;6.43;100.00;97542.84;5087880;28;20052;-47
2024/01/03 01:24:53;;;;;;;6.78;1.42;;;;;;;6.43;100.00;97536.56;5087720;28;20064;-47
2024/01/03 01:27:20;;;;;;;10.25;1.13;;;;;;;6.42;100.00;97538.50;5087278;28;20047;-50
2024/01/03 01:29:48;;;;;;;10.07;1.55;;;;;;;6.42;100.00;97544.00;5086140;28;20044;-48
2024/01/03 01:32:15;;;;;;;3.83;1.13;;;;;;;6.43;100.00;97540.09;5079382;28;20047;-52
2024/01/03 01:34:42;;;;;;;2.58;1.10;;;;;;;6.43;100.00;97537.34;5063000;28;20036;-46
2024/01/03 01:37:11;;;;;;;6.05;1.42;;;;;;;6.44;100.00;97538.09;5069238;28;20400;-48
2024/01/03 01:39:38;;;;;;;7.15;1.10;;;;;;;6.44;100.00;97536.16;5087127;28;20036;-50
2024/01/03 01:42:06;;;;;;;10.38;1.65;;;;;;;6.45;100.00;97529.47;5075926;28;20056;-51
2024/01/03 01:44:35;;;;;;;5.43;1.08;;;;;;;6.46;100.00;97527.53;5061971;28;20044;-51
2024/01/03 01:47:11;;;;;;;10.50;2.53;;;;;;;6.47;100.00;97534.56;5087702;28;20805;-54
2024/01/03 01:49:40;;;;;;;7.50;2.55;;;;;;;6.47;100.00;97524.38;5086891;28;20052;-53
2024/01/03 01:52:10;;;;;;;15.10;2.08;;;;;;;6.49;100.00;97521.22;5087023;28;20044;-48
2024/01/03 01:54:38;;;;;;;8.07;1.35;;;;;;;6.49;100.00;97523.97;5087114;28;20040;-50
2024/01/03 01:57:05;;;;;;;6.53;1.63;;;;;;;6.49;100.00;97523.97;5073685;28;20058;-50
2024/01/03 01:59:33;;;;;;;7.95;1.30;;;;;;;6.49;100.00;97529.47;5087170;28;20044;-49
2024/01/03 02:02:01;;;;;;;12.07;1.55;;;;;;;6.48;100.00;97525.94;5045008;28;1170308;-48
2024/01/03 02:04:29;;;;;;;10.57;1.70;;;;;;;6.48;100.00;97528.69;5087794;28;20043;-48
2024/01/03 02:06:56;;;;;;;8.18;1.77;;;;;;;6.45;100.00;97525.94;5087118;28;20051;-50
2024/01/03 02:09:23;;;;;;;13.07;2.63;;;;;;;6.44;100.00;97529.88;5080275;28;20512;-51
2024/01/03 02:11:51;;;;;;;5.82;1.38;;;;;;;6.41;100.00;97523.19;5066077;28;20051;-51
2024/01/03 02:14:18;;;;;;;8.73;2.92;;;;;;;6.39;100.00;97528.31;5084177;28;20044;-48
2024/01/03 02:16:46;;;;;;;6.50;1.77;;;;;;;6.37;100.00;97522.44;5074233;28;20040;-47
2024/01/03 02:19:13;;;;;;;8.07;2.00;;;;;;;6.35;100.00;97527.53;5080616;28;20673;-48
2024/01/03 02:21:40;;;;;;;14.70;1.73;;;;;;;6.33;100.00;97527.13;5074858;28;20047;-46
2024/01/03 02:24:08;;;;;;;6.75;2.25;;;;;;;6.32;100.00;97528.34;5078018;28;20056;-49
2024/01/03 02:26:35;;;;;;;6.22;1.15;;;;;;;6.30;100.00;97530.66;5081683;28;20044;-50
2024/01/03 02:29:02;;;;;;;3.47;1.17;;;;;;;6.30;100.00;97527.16;5064820;28;20048;-49
2024/01/03 02:31:30;;;;;;;6.07;1.73;;;;;;;6.27;100.00;97531.47;5073567;28;20521;-47
2024/01/03 02:33:57;;;;;;;8.27;1.50;;;;;;;6.27;100.00;97531.47;5072863;28;20099;-52
2024/01/03 02:36:25;;;;;;;8.05;1.45;;;;;;;6.27;100.00;97536.97;5072081;28;20119;-52
2024/01/03 02:38:53;;;;;;;10.80;2.85;;;;;;;6.27;100.00;97536.97;5069050;28;20055;-46
2024/01/03 02:41:21;;;;;;;4.50;1.23;;;;;;;6.29;100.00;97537.34;5070133;28;20052;-46
2024/01/03 02:43:49;;;;;;;6.45;2.30;;;;;;;6.26;100.00;97529.91;5067726;28;20040;-49
2024/01/03 02:46:19;;;;;;;5.80;1.52;;;;;;;6.24;100.00;97531.47;5067873;28;20063;-47
2024/01/03 02:48:47;;;;;;;4.43;1.23;;;;;;;6.20;100.00;97536.97;5070387;28;20037;-48
2024/01/03 02:51:19;;;;;;;6.82;1.27;;;;;;;6.14;100.00;97544.81;5068617;28;20044;-50
2024/01/03 02:53:46;;;;;;;4.50;1.35;;;;;;;6.09;100.00;97541.69;5068380;28;20059;-51
2024/01/03 02:56:14;;;;;;;12.90;2.08;;;;;;;6.04;100.00;97544.81;5070907;28;20540;-47
2024/01/03 02:58:42;;;;;;;5.93;2.08;;;;;;;6.01;100.00;97543.66;5072348;28;20044;-48
2024/01/03 03:01:09;;;;;;;7.00;1.50;;;;;;;5.97;100.00;97550.31;5148109;22;20064;-48
2024/01/03 03:03:37;;;;;;;8.63;1.58;;;;;;;5.93;100.00;97533.06;5065578;28;20127;-46
2024/01/03 03:06:04;;;;;;;8.88;1.85;;;;;;;5.88;100.00;97547.16;5056191;28;20051;-47
2024/01/03 03:08:32;;;;;;;9.27;2.08;;;;;;;5.84;100.00;97549.13;5064432;28;20060;-48
2024/01/03 03:11:00;;;;;;;8.55;1.73;;;;;;;5.80;100.00;97545.59;5065793;28;20513;-51
2024/01/03 03:13:27;;;;;;;9.80;1.40;;;;;;;5.77;100.00;97546.38;5049167;28;20033;-49
2024/01/03 03:15:55;;;;;;;9.63;2.45;;;;;;;5.74;100.00;97547.16;5070429;28;20064;-51
2024/01/03 03:18:22;;;;;;;9.60;1.90;;;;;;;5.78;100.00;97551.47;5071224;28;20052;-46
2024/01/03 03:20:49;;;;;;;9.73;1.75;;;;;;;5.83;100.00;97555.75;5070734;28;20703;-51
2024/01/03 03:23:17;;;;;;;8.20;2.53;;;;;;;5.89;100.00;97559.72;5063442;28;20044;-49
2024/01/03 03:25:44;;;;;;;5.40;2.20;;;;;;;5.91;100.00;97555.41;5070671;28;20052;-48
2024/01/03 03:28:12;;;;;;;8.45;2.05;;;;;;;5.92;100.00;97547.97;5069261;28;20052;-46
2024/01/03 03:30:39;;;;;;;11.43;1.83;;;;;;;5.95;100.00;97552.69;5070283;28;20071;-51
2024/01/03 03:33:06;;;;;;;9.52;2.40;;;;;;;5.96;100.00;97555.03;5070376;28;20040;-51
2024/01/03 03:35:34;;;;;;;9.85;2.03;;;;;;;6.01;100.00;97556.63;5070039;28;20418;-48
2024/01/03 03:38:01;;;;;;;11.32;2.58;;;;;;;6.06;100.00;97558.97;5070175;28;20079;-47
2024/01/03 03:40:29;;;;;;;10.05;3.60;;;;;;;6.10;100.00;97555.03;5068924;28;20059;-47
2024/01/03 03:42:56;;;;;;;12.27;3.35;;;;;;;6.13;100.00;97548.75;5063423;28;20445;-51
2024/01/03 03:45:23;;;;;;;13.73;2.58;;;;;;;6.15;100.00;97545.59;5069284;28;20497;-50
2024/01/03 03:47:51;;;;;;;8.20;2.10;;;;;;;6.18;100.00;97544.81;5069161;28;20052;-49
2024/01/03 03:50:20;;;;;;;10.10;2.30;;;;;;;6.19;100.00;97551.91;5058493;28;20504;-51
2024/01/03 03:52:47;;;;;;;10.02;2.70;;;;;;;6.20;100.00;97547.94;5057568;28;20032;-48
2024/01/03 03:55:15;;;;;;;14.38;2.30;;;;;;;6.21;100.00;97552.28;5070041;28;20036;-47
2024/01/03 03:57:43;;;;;;;7.70;1.92;;;;;;;6.21;100.00;97557.78;5069870;28;20146;-46
2024/01/03 04:00:11;;;;;;;9.55;2.40;;;;;;;6.20;100.00;97547.94;5069313;28;20056;-49
2024/01/03 04:02:38;;;;;;;9.77;2.35;;;;;;;6.22;100.00;97561.31;5068702;28;20809;-49
2024/01/03 04:05:06;;;;;;;10.45;2.00;;;;;;;6.23;100.00;97557.38;5070104;28;20514;-49
2024/01/03 04:07:33;;;;;;;10.50;2.50;;;;;;;6.25;100.00;97555.03;5069800;28;20076;-51
2024/01/03 04:10:01;;;;;;;16.55;3.40;;;;;;;6.26;100.00;97557.38;5069247;28;20049;-46
2024/01/03 04:12:28;;;;;;;8.02;2.25;;;;;;;6.28;100.00;97549.50;5068979;28;20494;-47
2024/01/03 04:14:55;;;;;;;14.60;2.65;;;;;;;6.28;100.00;97560.50;5068217;28;20044;-48
2024/01/03 04:17:23;;;;;;;8.85;1.83;;;;;;;6.29;100.00;97562.09;5069188;28;20522;-46
2024/01/03 04:19:50;;;;;;;7.97;2.38;;;;;;;6.33;100.00;97570.34;5056641;28;20052;-53
2024/01/03 04:22:17;;;;;;;9.43;2.08;;;;;;;6.33;100.00;97573.84;5068922;28;20052;-51
2024/01/03 04:24:45;;;;;;;10.63;2.50;;;;;;;6.37;100.00;97574.63;5068606;28;20037;-47
2024/01/03 04:27:12;;;;;;;8.30;2.17;;;;;;;6.38;100.00;97575.44;5069177;28;20052;-48
2024/01/03 04:29:39;;;;;;;12.15;2.65;;;;;;;6.41;100.00;97586.38;5062551;28;20037;-47
2024/01/03 04:32:07;;;;;;;16.88;4.03;;;;;;;6.43;100.00;97591.50;5068592;28;20406;-47
2024/01/03 04:34:36;;;;;;;7.85;1.95;;;;;;;6.43;100.00;97575.03;5067994;28;20477;-47
2024/01/03 04:37:05;;;;;;;8.68;2.28;;;;;;;6.45;100.00;97584.44;5069550;28;20045;-46
2024/01/03 04:39:33;;;;;;;8.60;1.92;;;;;;;6.48;100.00;97580.13;5068048;28;20051;-50
2024/01/03 04:42:00;;;;;;;11.15;2.75;;;;;;;6.48;100.00;97580.13;5040922;28;20521;-48
2024/01/03 04:44:28;;;;;;;6.43;2.10;;;;;;;6.51;100.00;97587.56;5030410;28;20041;-46
2024/01/03 04:46:55;;;;;;;12.02;2.30;;;;;;;6.51;100.00;97585.59;5068170;28;20048;-47
2024/01/03 04:49:22;;;;;;;8.63;2.33;;;;;;;6.53;100.00;97583.25;5069349;28;20510;-49
2024/01/03 04:51:52;;;;;;;6.55;1.80;;;;;;;6.54;100.00;97590.28;5069269;28;20044;-53
2024/01/03 04:54:19;;;;;;;10.35;2.28;;;;;;;6.54;100.00;97584.81;5067396;28;20052;-50
2024/01/03 04:56:47;;;;;;;13.38;2.55;;;;;;;6.55;100.00;97602.88;5050501;28;20049;-47
2024/01/03 04:59:17;;;;;;;16.30;2.67;;;;;;;6.55;100.00;97597.38;5065038;28;20524;-47
2024/01/03 05:01:44;;;;;;;6.47;2.15;;;;;;;6.54;100.00;97590.28;5067020;28;20083;-49
2024/01/03 05:04:12;;;;;;;16.70;3.67;;;;;;;6.53;100.00;97604.44;5067291;28;20764;-47
2024/01/03 05:06:40;;;;;;;9.90;2.20;;;;;;;6.50;100.00;97607.97;5068102;28;20044;-47
2024/01/03 05:09:07;;;;;;;8.13;1.98;;;;;;;6.49;100.00;97607.19;5068130;28;20409;-51
2024/01/03 05:11:35;;;;;;;6.28;2.63;;;;;;;6.50;100.00;97616.22;5048469;28;20087;-46
2024/01/03 05:14:02;;;;;;;8.40;2.10;;;;;;;6.50;100.00;97611.53;5056595;28;20064;-48
2024/01/03 05:16:29;;;;;;;12.85;2.30;;;;;;;6.48;100.00;97619.38;5068266;28;20511;-46
2024/01/03 05:18:57;;;;;;;6.75;2.58;;;;;;;6.50;100.00;97616.22;5067317;28;20044;-49
2024/01/03 05:21:24;;;;;;;9.85;2.58;;;;;;;6.50;100.00;97617.00;5067620;28;20525;-48
2024/01/03 05:23:51;;;;;;;10.18;2.92;;;;;;;6.50;100.00;97611.53;5067239;28;20037;-53
2024/01/03 05:26:19;;;;;;;14.45;3.92;;;;;;;6.52;100.00;97609.16;5067504;28;20554;-47
2024/01/03 05:28:47;;;;;;;13.18;2.60;;;;;;;6.54;100.00;97625.25;5067500;28;20053;-47
2024/01/03 05:31:15;;;;;;;7.85;2.10;;;;;;;6.55;100.00;97624.06;5049225;28;20062;-48
2024/01/03 05:33:42;;;;;;;14.13;3.03;;;;;;;6.56;100.00;97628.41;5049809;28;20516;-49
2024/01/03 05:36:10;;;;;;;10.70;2.47;;;;;;;6.56;100.00;97631.94;5067199;28;20494;-48
2024/01/03 05:38:37;;;;;;;10.07;3.05;;;;;;;6.58;100.00;97635.06;5067584;28;20051;-47
2024/01/03 05:41:04;;;;;;;9.13;2.38;;;;;;;6.60;100.00;97631.91;5067308;28;20041;-48
2024/01/03 05:43:35;;;;;;;14.20;2.72;;;;;;;6.59;100.00;97636.63;5063580;28;20605;-47
2024/01/03 05:46:03;;;;;;;9.18;2.53;;;;;;;6.59;100.00;97639.38;5067137;28;20045;-49
2024/01/03 05:48:30;;;;;;;6.75;2.58;;;;;;;6.60;100.00;97638.19;5065733;28;20052;-48
2024/01/03 05:50:58;;;;;;;7.78;2.70;;;;;;;6.59;100.00;97638.59;5067410;28;20041;-47
2024/01/03 05:53:25;;;;;;;10.13;2.70;;;;;;;6.57;100.00;97644.47;5068140;28;20040;-48
2024/01/03 05:55:53;;;;;;;15.60;2.95;;;;;;;6.55;100.00;97640.56;5066934;28;20044;-48
2024/01/03 05:58:20;;;;;;;6.93;2.63;;;;;;;6.54;100.00;97653.50;5066891;28;20799;-51
2024/01/03 06:00:47;;;;;;;6.68;2.45;;;;;;;6.56;100.00;97658.63;5066668;28;20041;-47
2024/01/03 06:03:15;;;;;;;7.03;2.80;;;;;;;6.54;100.00;97650.75;5066744;28;20050;-47
2024/01/03 06:05:42;;;;;;;8.35;2.70;;;;;;;6.56;100.00;97670.41;5061170;28;20045;-51
2024/01/03 06:08:10;;;;;;;6.80;2.35;;;;;;;6.57;100.00;97663.72;5060632;28;20079;-50
2024/01/03 06:10:39;;;;;;;7.57;2.90;;;;;;;6.58;100.00;97668.06;5055986;28;20040;-48
2024/01/03 06:13:07;;;;;;;11.68;3.50;;;;;;;6.57;100.00;97666.47;5061161;28;20052;-49
2024/01/03 06:15:34;;;;;;;9.25;3.65;;;;;;;6.59;100.00;97677.09;5063877;28;20072;-48
2024/01/03 06:18:01;;;;;;;8.93;3.22;;;;;;;6.58;100.00;97679.03;5066735;28;20040;-48
2024/01/03 06:20:31;;;;;;;8.40;2.60;;;;;;;6.59;100.00;97675.09;5056740;28;20036;-47
2024/01/03 06:22:58;;;;;;;8.15;2.83;;;;;;;6.60;100.00;97682.19;5067472;28;20379;-47
2024/01/03 06:25:25;;;;;;;6.68;2.70;;;;;;;6.59;100.00;97680.59;5066363;28;20052;-51
2024/01/03 06:27:56;;;;;;;7.85;3.78;;;;;;;6.58;100.00;97679.03;5066880;28;20063;-50
2024/01/03 06:30:23;;;;;;;12.15;2.63;;;;;;;6.55;100.00;97679.81;5066564;28;20044;-48
2024/01/03 06:32:51;;;;;;;7.10;2.65;;;;;;;6.53;100.00;97682.19;5066503;28;20043;-49
2024/01/03 06:35:19;;;;;;;14.27;2.83;;;;;;;6.53;100.00;97684.94;5067048;28;20063;-47
2024/01/03 06:37:46;;;;;;;7.35;3.08;;;;;;;6.53;100.00;97695.94;5066245;28;20037;-50
2024/01/03 06:40:14;;;;;;;10.05;2.35;;;;;;;6.54;100.00;97693.97;5064586;28;20124;-48
2024/01/03 06:42:42;;;;;;;11.80;3.90;;;;;;;6.54;100.00;97692.00;5067029;28;20048;-53
2024/01/03 06:45:09;;;;;;;5.80;2.33;;;;;;;6.56;100.00;97697.91;5066202;28;20527;-48
2024/01/03 06:47:37;;;;;;;8.20;2.03;;;;;;;6.55;100.00;97685.31;5048038;28;20052;-50
2024/01/03 06:50:04;;;;;;;10.48;2.85;;;;;;;6.55;100.00;97696.31;5065508;28;20056;-48
2024/01/03 06:52:32;;;;;;;7.85;2.70;;;;;;;6.53;100.00;97703.38;5067066;28;20048;-47
2024/01/03 06:54:59;;;;;;;9.23;3.53;;;;;;;6.51;100.00;97701.00;5066284;28;20520;-48
2024/01/03 06:57:27;;;;;;;8.50;2.22;;;;;;;6.49;100.00;97700.63;5063010;28;20072;-51
2024/01/03 06:59:54;;;;;;;4.90;2.38;;;;;;;6.48;100.00;97712.81;5064957;28;20077;-48
2024/01/03 07:02:22;;;;;;;8.38;2.25;;;;;;;6.47;100.00;97705.72;5065811;28;20048;-46
2024/01/03 07:04:51;;;;;;;13.93;3.70;;;;;;;6.44;100.00;97717.50;5066941;28;20477;-53
2024/01/03 07:07:18;;;;;;;6.10;2.17;;;;;;;6.46;100.00;97719.88;5066987;28;20558;-46
2024/01/03 07:09:45;;;;;;;5.22;2.38;;;;;;;6.45;100.00;97721.84;5066331;28;20041;-50
2024/01/03 07:12:16;;;;;;;6.95;2.28;;;;;;;6.45;100.00;97721.84;5066378;28;20040;-50
2024/01/03 07:14:44;;;;;;;8.25;3.03;;;;;;;6.44;100.00;97733.19;5066427;28;20556;-46
2024/01/03 07:17:11;;;;;;;4.72;2.22;;;;;;;6.45;100.00;97730.09;5064540;28;20056;-49
2024/01/03 07:19:38;;;;;;;11.52;4.95;;;;;;;6.44;100.00;97725.75;5066190;28;20040;-46
2024/01/03 07:22:06;;;;;;;6.97;2.60;;;;;;;6.44;100.00;97734.00;5055640;28;20059;-48
2024/01/03 07:24:38;;;;;;;8.82;2.88;;;;;;;6.45;100.00;97735.56;5047666;28;20067;-49
2024/01/03 07:27:06;;;;;;;8.65;2.40;;;;;;;6.47;100.00;97737.91;5066391;28;20060;-47
2024/01/03 07:29:34;;;;;;;8.07;2.85;;;;;;;6.48;100.00;97734.00;5048429;28;20060;-47
2024/01/03 07:32:02;;;;;;;10.20;2.45;;;;;;;6.48;100.00;97734.78;5065021;28;20413;-47
2024/01/03 07:34:31;;;;;;;7.30;2.33;;;;;;;6.49;100.00;97743.81;5066405;28;20055;-48
2024/01/03 07:36:58;;;;;;;7.22;2.42;;;;;;;6.50;100.00;97743.44;5066020;28;20056;-48
2024/01/03 07:39:25;;;;;;;11.88;2.55;;;;;;;6.52;100.00;97751.28;5063715;28;20041;-48
2024/01/03 07:41:53;;;;;;;8.60;3.45;;;;;;;6.52;100.00;97757.56;5059850;28;20049;-48
2024/01/03 07:44:20;;;;;;;7.22;2.80;;;;;;;6.52;100.00;97760.31;5065338;28;20051;-49
2024/01/03 07:46:48;;;;;;;7.95;2.60;;;;;;;6.52;100.00;97762.25;5064713;28;20554;-56
2024/01/03 07:49:16;;;;;;;6.53;2.53;;;;;;;6.52;100.00;97765.81;5059953;28;20041;-53
2024/01/03 07:51:48;;;;;;;8.10;2.47;;;;;;;6.53;100.00;97772.88;5048965;28;20168;-49
2024/01/03 07:54:15;;;;;;;6.75;2.45;;;;;;;6.53;100.00;97761.09;5065006;28;20448;-52
2024/01/03 07:56:43;;;;;;;9.82;2.28;;;;;;;6.52;100.00;97768.56;5065918;28;20052;-49
2024/01/03 07:59:10;;;;;;;7.32;2.30;;;;;;;6.52;100.00;97776.81;5061606;28;20071;-52
2024/01/03 08:01:37;;;;;;;7.32;2.30;;;;;;;6.51;100.00;97777.19;5062928;28;20056;-46
2024/01/03 08:04:05;;;;;;;9.15;2.40;;;;;;;6.50;100.00;97783.88;5053070;28;20049;-49
2024/01/03 08:06:33;;;;;;;7.13;2.58;;;;;;;6.49;100.00;97783.06;5069028;28;20418;-48
2024/01/03 08:09:01;;;;;;;6.88;2.47;;;;;;;6.49;100.00;97785.81;5057605;28;20056;-46
2024/01/03 08:11:28;;;;;;;9.00;2.53;;;;;;;6.48;100.00;97795.25;5063241;28;20045;-52
2024/01/03 08:13:56;;;;;;;6.57;2.20;;;;;;;6.46;100.00;97789.34;5070000;28;20045;-49
2024/01/03 08:16:24;;;;;;;5.35;2.38;;;;;;;6.45;100.00;97796.03;5065299;28;20056;-49
2024/01/03 08:18:51;;;;;;;7.15;2.90;;;;;;;6.45;100.00;97795.25;5069669;28;20052;-49
2024/01/03 08:21:20;;;;;;;5.20;2.03;;;;;;;6.44;100.00;97805.44;5068503;28;20052;-50
2024/01/03 08:23:48;;;;;;;11.57;4.35;;;;;;;6.45;100.00;97811.72;5063087;28;20387;-51
2024/01/03 08:26:15;;;;;;;9.52;2.45;;;;;;;6.46;100.00;97807.81;5067352;28;20048;-47
2024/01/03 08:28:45;;;;;;;6.00;2.55;;;;;;;6.46;100.00;97814.06;5060372;28;20690;-48
2024/01/03 08:31:17;;;;;;;9.10;2.80;;;;;;;6.45;100.00;97815.28;5063047;28;20051;-48
2024/01/03 08:33:48;;;;;;;7.65;2.63;;;;;;;6.46;100.00;97822.31;5064567;28;20052;-46
2024/01/03 08:36:15;;;;;;;7.30;2.55;;;;;;;6.47;100.00;97828.59;5057446;28;20045;-47
2024/01/03 08:38:43;;;;;;;9.65;2.55;;;;;;;6.47;100.00;97825.84;5055922;28;20048;-49
2024/01/03 08:41:19;;;;;;;8.38;2.85;;;;;;;6.46;100.00;97838.03;5067465;28;20220;-48
2024/01/03 08:43:47;;;;;;;5.07;2.67;;;;;;;6.45;100.00;97831.75;5065688;28;20040;-48
2024/01/03 08:46:14;;;;;;;5.10;2.42;;;;;;;6.46;100.00;97847.06;5067573;28;20045;-52
2024/01/03 08:48:42;;;;;;;8.48;2.47;;;;;;;6.46;100.00;97847.06;5036958;28;20045;-47
2024/01/03 08:51:16;;;;;;;13.43;3.45;;;;;;;6.46;100.00;97852.56;5059891;28;20048;-49
2024/01/03 08:53:44;;;;;;;10.63;2.83;;;;;;;6.45;100.00;97850.19;5067534;28;20044;-46
2024/01/03 08:56:13;;;;;;;5.25;2.42;;;;;;;6.44;100.00;97849.41;5064991;28;20059;-50
2024/01/03 08:58:42;;;;;;;6.07;2.50;;;;;;;6.44;100.00;97849.41;5065438;28;20041;-50
2024/01/03 09:01:18;;;;;;;9.68;3.17;;;;;;;6.42;100.00;97850.97;5067126;28;20064;-51
2024/01/03 09:03:47;;;;;;;6.28;3.20;;;;;;;6.38;100.00;97850.94;5066225;28;20371;-46
2024/01/03 09:06:18;;;;;;;7.78;2.72;;;;;;;6.34;100.00;97855.66;5059759;28;20040;-50
2024/01/03 09:08:50;;;;;;;8.77;4.10;;;;;;;6.35;100.00;97868.25;5062280;28;20503;-52
2024/01/03 09:11:22;;;;;;;9.82;4.47;;;;;;;6.38;100.00;97867.44;5041700;28;20048;-47
2024/01/03 09:13:50;;;;;;;7.32;2.67;;;;;;;6.40;100.00;97870.59;5060430;28;20044;-47
2024/01/03 09:16:19;;;;;;;9.07;3.10;;;;;;;6.42;100.00;97871.00;5060651;28;20044;-47
2024/01/03 09:18:47;;;;;;;11.15;3.17;;;;;;;6.40;100.00;97876.09;5064506;28;20059;-49
2024/01/03 09:21:16;;;;;;;10.20;3.15;;;;;;;6.36;100.00;97878.03;5058788;28;20049;-49
2024/01/03 09:23:44;;;;;;;7.05;2.65;;;;;;;6.35;100.00;97873.72;5066289;28;20049;-53
2024/01/03 09:26:11;;;;;;;10.52;2.90;;;;;;;6.37;100.00;97884.31;5063686;28;20049;-50
2024/01/03 09:28:41;;;;;;;10.15;2.65;;;;;;;6.39;100.00;97885.50;5061572;28;20522;-49
2024/01/03 09:31:09;;;;;;;10.15;3.45;;;;;;;6.42;100.00;97884.75;5045646;28;20095;-51
2024/01/03 09:33:38;;;;;;;6.35;3.10;;;;;;;6.44;100.00;97887.88;5067110;28;20063;-52
2024/01/03 09:36:16;;;;;;;7.53;2.78;;;;;;;6.47;100.00;97892.59;5066751;28;20062;-49
2024/01/03 09:38:44;;;;;;;7.78;2.67;;;;;;;6.50;100.00;97897.34;5064018;28;20044;-50
2024/01/03 09:41:12;;;;;;;7.47;2.78;;;;;;;6.51;100.00;97903.63;5059075;28;20576;-51
2024/01/03 09:43:44;;;;;;;6.95;2.60;;;;;;;6.53;100.00;97902.06;5063904;28;20032;-50
2024/01/03 09:46:12;;;;;;;12.52;3.22;;;;;;;6.55;100.00;97910.69;5064915;28;20048;-51
2024/01/03 09:48:41;;;;;;;7.38;3.35;;;;;;;6.56;100.00;97904.03;5067630;28;20052;-50
2024/01/03 09:51:09;;;;;;;7.93;2.70;;;;;;;6.56;100.00;97906.78;5066879;28;20048;-49
2024/01/03 09:53:37;;;;;;;6.57;3.08;;;;;;;6.58;100.00;97912.69;5066549;28;20048;-49
2024/01/03 09:56:04;;;;;;;9.23;3.20;;;;;;;6.60;100.00;97923.28;5059458;28;20638;-48
2024/01/03 09:58:35;;;;;;;16.73;3.00;;;;;;;6.62;100.00;97927.22;5050586;28;20055;-47
2024/01/03 10:01:02;;;;;;;5.10;3.10;;;;;;;6.63;100.00;97926.03;5065755;28;20063;-51
2024/01/03 10:03:30;;;;;;;9.48;3.35;;;;;;;6.65;100.00;97936.63;5064138;28;20047;-50
2024/01/03 10:06:09;;;;;;;9.30;3.88;;;;;;;6.65;100.00;97926.44;5066496;28;20548;-47
2024/01/03 10:09:07;;;;;;;12.98;4.05;;;;;;;6.68;100.00;97941.38;5063921;28;20044;-47
2024/01/03 10:11:34;;;;;;;8.38;3.42;;;;;;;6.71;100.00;97946.09;5048552;28;20048;-47
2024/01/03 10:14:21;;;;;;;9.25;3.45;;;;;;;6.75;100.00;97957.91;5048800;28;20144;-51
2024/01/03 10:16:49;;;;;;;10.75;3.47;;;;;;;6.77;100.00;97961.06;5064830;28;20032;-50
2024/01/03 10:19:20;;;;;;;7.43;3.65;;;;;;;6.78;100.00;97964.59;5065789;28;20048;-47
2024/01/03 10:21:49;;;;;;;6.90;3.15;;;;;;;6.81;100.00;97972.03;5066198;28;20048;-49
2024/01/03 10:24:18;;;;;;;11.63;3.20;;;;;;;6.82;100.00;97966.16;5048432;28;20058;-48
2024/01/03 10:26:46;;;;;;;11.88;3.92;;;;;;;6.86;100.00;97979.94;5053896;28;20053;-46
2024/01/03 10:29:16;;;;;;;14.50;5.88;;;;;;;6.87;100.00;97976.78;5064871;28;20436;-51
2024/01/03 10:31:48;;;;;;;13.05;4.63;;;;;;;6.89;100.00;97979.16;5046502;28;20498;-49
2024/01/03 10:34:23;;;;;;;11.52;3.78;;;;;;;6.89;100.00;97990.16;5065375;28;20044;-47
2024/01/03 10:36:53;;;;;;;8.50;3.22;;;;;;;6.89;100.00;97992.91;5062657;28;20453;-48
2024/01/03 10:39:22;;;;;;;12.20;3.65;;;;;;;6.89;100.00;97998.41;5064681;28;20049;-48
2024/01/03 10:41:51;;;;;;;10.13;4.15;;;;;;;6.89;100.00;97998.41;5049251;28;20394;-49
2024/01/03 10:44:19;;;;;;;9.82;3.75;;;;;;;6.89;100.00;98010.19;5043708;28;20052;-55
2024/01/03 10:46:49;;;;;;;8.70;3.88;;;;;;;6.88;100.00;98013.34;5062057;28;20037;-51
2024/01/03 10:49:18;;;;;;;13.05;4.47;;;;;;;6.87;100.00;98015.28;5066039;28;20401;-48
2024/01/03 10:51:51;;;;;;;11.13;5.63;;;;;;;6.88;100.00;98021.59;5065713;28;20514;-48
2024/01/03 10:54:22;;;;;;;8.90;4.13;;;;;;;6.89;100.00;98025.91;5048739;28;20041;-51
2024/01/03 10:56:51;;;;;;;9.13;4.95;;;;;;;6.89;100.00;98028.66;5064798;28;20055;-50
2024/01/03 10:59:27;;;;;;;14.25;5.28;;;;;;;6.89;100.00;98036.91;5057364;28;20410;-49
2024/01/03 11:02:14;;;;;;;10.57;5.97;;;;;;;6.92;100.00;98044.38;5065257;28;20049;-47
2024/01/03 11:04:53;;;;;;;17.92;5.80;;;;;;;6.91;100.00;98043.59;5055402;28;20049;-50
2024/01/03 11:07:39;;;;;;;12.98;5.72;;;;;;;6.91;100.00;98056.56;5048482;28;20449;-48
2024/01/03 11:10:07;;;;;;;12.63;5.13;;;;;;;6.90;100.00;98057.72;5061762;28;20057;-48
2024/01/03 11:12:34;;;;;;;15.02;6.32;;;;;;;6.88;100.00;98049.88;5065472;28;20052;-51
2024/01/03 11:15:21;;;;;;;14.43;7.63;;;;;;;6.88;100.00;98057.34;5066003;28;20086;-49
2024/01/03 11:17:56;;;;;;;19.38;9.23;;;;;;;6.86;100.00;98063.22;5059167;28;20048;-53
2024/01/03 11:20:29;;;;;;;16.42;7.70;;;;;;;6.87;100.00;98058.50;5059199;28;20437;-50
2024/01/03 11:22:58;;;;;;;19.40;8.52;;;;;;;6.90;100.00;98057.72;5064030;28;20048;-53
2024/01/03 11:25:48;;;;;;;15.90;7.30;;;;;;;6.90;100.00;98064.03;5055994;28;20044;-46
2024/01/03 11:28:36;;;;;;;18.63;7.57;;;;;;;6.92;100.00;98071.88;5063232;28;20044;-52
2024/01/03 11:31:07;;;;;;;19.10;8.75;;;;;;;6.91;100.00;98071.09;5064007;28;20044;-51
2024/01/03 11:33:41;;;;;;;15.63;8.00;;;;;;;6.92;100.00;98067.16;5065232;28;20045;-50
2024/01/03 11:36:09;;;;;;;16.80;7.65;;;;;;;6.95;100.00;98077.41;5044307;28;20513;-47
2024/01/03 11:38:43;;;;;;;15.70;7.50;;;;;;;6.95;100.00;98076.63;5069119;28;20048;-50
2024/01/03 11:41:18;;;;;;;14.40;7.03;;;;;;;6.94;100.00;98077.78;5068403;28;20644;-50